createdAt,value
2022-09-27T00:02:00.833Z,19.00
2022-09-27T00:07:03.162Z,21.92
2022-09-27T00:12:05.536Z,21.80
2022-09-27T00:17:07.857Z,22.70
2022-09-27T00:22:10.174Z,19.30
2022-09-27T00:27:12.618Z,22.80
2022-09-27T00:32:15.022Z,17.95
2022-09-27T00:37:17.331Z,19.63
2022-09-27T00:42:19.666Z,18.02
2022-09-27T00:47:29.282Z,18.23
2022-09-27T00:52:37.621Z,17.25
2022-09-27T00:57:41.355Z,19.38
2022-09-27T01:02:47.071Z,21.60
2022-09-27T01:07:49.404Z,22.85
2022-09-27T01:13:05.575Z,21.23
2022-09-27T01:18:35.795Z,18.42
2022-09-27T01:23:52.087Z,19.45
2022-09-27T01:29:15.623Z,21.88
2022-09-27T01:34:24.139Z,18.60
2022-09-27T01:39:47.255Z,19.35
2022-09-27T01:45:31.124Z,21.30
2022-09-27T01:50:50.580Z,21.70
2022-09-27T01:55:53.907Z,21.05
2022-09-27T02:01:30.248Z,24.08
2022-09-27T02:06:36.554Z,20.35
2022-09-27T02:11:56.412Z,21.48
2022-09-27T02:17:11.449Z,19.50
2022-09-27T02:22:36.772Z,24.95
2022-09-27T02:28:00.669Z,25.00
2022-09-27T02:33:09.365Z,25.25
2022-09-27T02:38:12.006Z,21.90
2022-09-27T02:43:16.649Z,20.52
2022-09-27T02:48:31.220Z,23.20
2022-09-27T02:53:57.204Z,20.13
2022-09-27T03:00:01.413Z,20.08
2022-09-27T03:05:18.692Z,20.52
2022-09-27T03:10:23.851Z,22.58
2022-09-27T03:15:26.539Z,22.83
2022-09-27T03:20:37.763Z,26.27
2022-09-27T03:25:43.815Z,27.08
2022-09-27T03:30:48.084Z,22.00
2022-09-27T03:36:10.571Z,23.20
2022-09-27T03:41:12.990Z,18.53
2022-09-27T03:46:16.261Z,17.10
2022-09-27T03:51:18.751Z,19.53
2022-09-27T03:56:20.930Z,18.85
2022-09-27T04:01:23.461Z,18.67
2022-09-27T04:06:30.676Z,17.67
2022-09-27T04:11:33.012Z,14.98
2022-09-27T04:16:37.375Z,15.38
2022-09-27T04:22:05.707Z,20.45
2022-09-27T04:27:08.230Z,18.55
2022-09-27T04:32:15.155Z,19.80
2022-09-27T04:37:45.218Z,15.73
2022-09-27T04:42:48.869Z,13.88
2022-09-27T04:47:51.454Z,12.35
2022-09-27T04:52:54.414Z,11.02
2022-09-27T04:57:56.733Z,14.60
2022-09-27T05:02:59.197Z,9.65
2022-09-27T05:08:15.039Z,12.95
2022-09-27T05:13:43.639Z,11.68
2022-09-27T05:18:46.211Z,17.23
2022-09-27T05:24:07.229Z,14.40
2022-09-27T05:29:10.298Z,14.33
2022-09-27T05:34:13.614Z,11.52
2022-09-27T05:39:22.626Z,10.45
2022-09-27T05:44:26.158Z,10.88
2022-09-27T05:49:48.837Z,16.55
2022-09-27T05:54:51.270Z,14.25
2022-09-27T05:59:56.907Z,18.48
2022-09-27T06:05:14.873Z,19.02
2022-09-27T06:10:47.500Z,17.35
2022-09-27T06:15:53.496Z,16.17
2022-09-27T06:20:59.743Z,20.73
2022-09-27T06:26:08.249Z,16.55
2022-09-27T06:36:37.905Z,14.10
2022-09-27T06:41:40.183Z,18.75
2022-09-27T06:47:05.395Z,15.25
2022-09-27T06:52:21.928Z,17.63
2022-09-27T06:57:42.824Z,12.88
2022-09-27T07:02:46.330Z,15.70
2022-09-27T07:08:19.638Z,16.17
2022-09-27T07:13:22.698Z,18.13
2022-09-27T07:18:26.465Z,15.43
2022-09-27T07:23:30.954Z,17.38
2022-09-27T07:28:34.819Z,14.55
2022-09-27T07:33:43.296Z,16.85
2022-09-27T07:38:46.291Z,11.60
2022-09-27T07:43:49.542Z,14.27
2022-09-27T07:48:53.847Z,10.68
2022-09-27T07:54:22.051Z,11.55
2022-09-27T07:59:53.939Z,12.98
2022-09-27T08:04:59.716Z,9.80
2022-09-27T08:10:03.898Z,11.45
2022-09-27T08:15:08.465Z,11.93
2022-09-27T08:20:14.746Z,15.20
2022-09-27T08:25:38.137Z,13.98
2022-09-27T08:31:01.905Z,12.23
2022-09-27T08:36:04.390Z,12.00
2022-09-27T08:41:16.086Z,10.43
2022-09-27T08:46:38.914Z,13.02
2022-09-27T08:51:41.540Z,10.32
2022-09-27T08:56:50.326Z,8.60
2022-09-27T09:01:54.890Z,10.35
2022-09-27T09:07:09.902Z,9.37
2022-09-27T09:12:39.203Z,12.43
2022-09-27T09:18:03.586Z,9.55
2022-09-27T09:23:40.353Z,8.25
2022-09-27T09:28:55.965Z,6.97
2022-09-27T09:34:09.754Z,8.48
2022-09-27T09:39:17.151Z,8.05
2022-09-27T09:44:46.418Z,7.28
2022-09-27T09:49:52.308Z,8.75
2022-09-27T09:55:02.793Z,7.97
2022-09-27T10:00:18.980Z,8.82
2022-09-27T10:05:26.754Z,8.57
2022-09-27T10:10:42.458Z,6.43
2022-09-27T10:16:08.409Z,7.70
2022-09-27T10:21:15.536Z,9.07
2022-09-27T10:26:21.731Z,6.35
2022-09-27T10:31:36.066Z,7.72
2022-09-27T10:37:23.690Z,9.32
2022-09-27T10:42:52.331Z,7.78
2022-09-27T10:48:01.372Z,6.47
2022-09-27T10:53:15.101Z,6.88
2022-09-27T10:58:32.712Z,7.63
2022-09-27T11:03:39.858Z,5.28
2022-09-27T11:08:42.724Z,6.13
2022-09-27T11:14:05.054Z,6.57
2022-09-27T11:19:35.180Z,6.57
2022-09-27T11:24:43.750Z,5.65
2022-09-27T11:30:22.426Z,5.05
2022-09-27T11:36:13.401Z,4.60
2022-09-27T11:41:35.173Z,35.75
2022-09-27T11:46:41.830Z,13.57
2022-09-27T11:51:45.962Z,8.60
2022-09-27T11:56:57.822Z,6.82
2022-09-27T12:02:45.477Z,5.25
2022-09-27T12:08:04.084Z,5.97
2022-09-27T12:13:12.152Z,4.20
2022-09-27T12:18:25.451Z,6.55
2022-09-27T12:23:42.061Z,4.28
2022-09-27T12:29:31.767Z,3.75
2022-09-27T12:34:49.751Z,4.85
2022-09-27T12:40:01.022Z,9.75
2022-09-27T12:45:16.657Z,7.18
2022-09-27T12:50:30.308Z,4.68
2022-09-27T12:55:47.421Z,4.38
2022-09-27T13:01:08.687Z,4.93
2022-09-27T13:06:33.860Z,4.72
2022-09-27T13:11:58.676Z,2.92
2022-09-27T13:17:02.112Z,3.67
2022-09-27T13:22:11.668Z,4.80
2022-09-27T13:27:39.984Z,3.70
2022-09-27T13:33:09.180Z,5.18
2022-09-27T13:38:22.754Z,5.80
2022-09-27T13:43:44.984Z,5.22
2022-09-27T13:49:15.507Z,4.95
2022-09-27T13:54:54.811Z,5.23
2022-09-27T14:00:05.352Z,7.85
2022-09-27T14:05:51.446Z,3.80
2022-09-27T14:10:57.829Z,9.20
2022-09-27T14:16:04.589Z,8.70
2022-09-27T14:21:26.809Z,6.28
2022-09-27T14:26:45.909Z,4.13
2022-09-27T14:32:05.311Z,4.93
2022-09-27T14:37:24.575Z,5.40
2022-09-27T14:42:37.457Z,4.57
2022-09-27T14:47:46.524Z,23.92
2022-09-27T14:52:50.122Z,20.13
2022-09-27T14:58:00.139Z,49.60
2022-09-27T15:03:05.362Z,25.30
2022-09-27T15:08:08.339Z,15.65
2022-09-27T15:13:14.905Z,25.70
2022-09-27T15:18:37.751Z,98.55
2022-09-27T15:23:42.502Z,153.87
2022-09-27T15:28:46.956Z,65.50
2022-09-27T15:33:56.979Z,41.42
2022-09-27T15:39:10.439Z,42.08
2022-09-27T15:44:38.755Z,40.90
2022-09-27T15:49:41.164Z,27.98
2022-09-27T15:54:46.210Z,33.97
2022-09-27T15:59:48.530Z,85.63
2022-09-27T16:04:51.006Z,85.63
2022-09-27T16:09:55.655Z,110.00
2022-09-27T16:14:57.882Z,69.50
2022-09-27T16:20:03.431Z,59.35
2022-09-27T16:25:08.577Z,57.80
2022-09-27T16:30:11.384Z,54.83
2022-09-27T16:35:15.593Z,30.58
2022-09-27T16:40:18.786Z,22.10
2022-09-27T16:45:21.627Z,23.65
2022-09-27T16:50:42.279Z,25.17
2022-09-27T16:55:44.802Z,17.92
2022-09-27T17:00:47.399Z,39.40
2022-09-27T17:05:49.947Z,59.83
2022-09-27T17:10:52.337Z,98.32
2022-09-27T17:15:54.757Z,47.90
2022-09-27T17:21:02.280Z,23.60
2022-09-27T17:26:10.277Z,12.98
2022-09-27T17:31:15.779Z,9.65
2022-09-27T17:36:20.887Z,32.38
2022-09-27T17:41:25.704Z,31.48
2022-09-27T17:46:32.914Z,26.15
2022-09-27T17:51:37.333Z,31.60
2022-09-27T17:56:41.454Z,29.17
2022-09-27T18:01:44.904Z,37.88
2022-09-27T18:11:49.924Z,21.58
2022-09-27T18:16:57.841Z,19.88
2022-09-27T18:22:01.013Z,41.78
2022-09-27T18:27:05.075Z,36.47
2022-09-27T18:32:07.608Z,37.58
2022-09-27T18:37:10.146Z,25.17
2022-09-27T18:42:12.762Z,22.13
2022-09-27T18:47:17.526Z,50.78
2022-09-27T18:52:19.962Z,39.38
2022-09-27T18:57:24.754Z,27.67
2022-09-27T19:02:27.294Z,29.67
2022-09-27T19:07:30.183Z,26.00
2022-09-27T19:12:33.803Z,35.47
2022-09-27T19:22:39.981Z,40.28
2022-09-27T19:27:43.332Z,45.97
2022-09-27T19:32:51.691Z,71.00
2022-09-27T19:37:54.083Z,67.85
2022-09-27T19:42:56.418Z,40.33
2022-09-27T19:47:58.785Z,41.88
2022-09-27T19:53:00.964Z,36.00
2022-09-27T19:58:04.145Z,37.45
2022-09-27T20:03:06.486Z,35.08
2022-09-27T20:08:08.796Z,25.27
2022-09-27T20:13:11.018Z,17.17
2022-09-27T20:18:13.985Z,25.67
2022-09-27T20:23:20.073Z,19.37
2022-09-27T20:28:22.344Z,8.90
2022-09-27T20:33:43.894Z,6.68
2022-09-27T20:38:52.182Z,18.15
2022-09-27T20:43:56.477Z,19.73
2022-09-27T20:49:02.967Z,19.08
2022-09-27T20:54:07.002Z,25.30
2022-09-27T20:59:20.917Z,14.45
2022-09-27T21:04:23.859Z,13.40
2022-09-27T21:09:26.902Z,13.50
2022-09-27T21:14:29.156Z,12.23
2022-09-27T21:19:31.642Z,11.60
2022-09-27T21:24:33.846Z,13.65
2022-09-27T21:29:36.093Z,26.00
2022-09-27T21:34:38.296Z,23.73
2022-09-27T21:39:41.747Z,25.48
2022-09-27T21:44:44.240Z,17.77
2022-09-27T21:49:46.793Z,21.40
2022-09-27T21:54:48.994Z,20.67
2022-09-27T21:59:51.177Z,29.20
2022-09-27T22:04:53.304Z,29.63
2022-09-27T22:09:55.682Z,32.05
2022-09-27T22:14:58.727Z,25.10
2022-09-27T22:20:01.219Z,14.85
2022-09-27T22:25:03.557Z,13.07
2022-09-27T22:30:06.482Z,24.02
2022-09-27T22:35:09.013Z,33.78
2022-09-27T22:40:11.811Z,42.45
2022-09-27T22:45:15.055Z,23.77
2022-09-27T22:50:17.299Z,16.33
2022-09-27T22:55:19.482Z,24.52
2022-09-27T23:00:22.262Z,57.42
2022-09-27T23:05:24.786Z,39.43
2022-09-27T23:10:28.060Z,24.58
2022-09-27T23:15:30.521Z,11.52
2022-09-27T23:20:32.778Z,8.35
2022-09-27T23:25:34.984Z,7.25
2022-09-27T23:30:37.176Z,5.82
2022-09-27T23:35:39.365Z,6.20
2022-09-27T23:40:42.007Z,6.82
2022-09-27T23:45:44.309Z,4.50
2022-09-27T23:50:46.811Z,5.75
2022-09-27T23:56:07.525Z,5.32
